Hessel, Michigan
Current Conditions -  °F | °C
As of 8:36 AM on Saturday 20 Dec 2014 (Local Time) from KMCD Reporting Station
Overcast Overcast  
Wind Chill: 21°   Ceiling: 2100
Heat Index: 21°   Visibility: 10mi
Dew Point: 21°   Wind: 3mph
Humidity: 98%   Direction: 90°E
Pressure: 30.29"   Gusts: NA
Location:  46°N, 84.43°W
Report Text: KMCD 201336Z AUTO 09003KT 10SM OVC021 M06/M06 A3029 RMK AO2 T10591062
Loading
Personal Weather Stations






























Interactive Weather Map New forecast layout! Learn more

10-Day Weather Forecast

Advertisements
Track Severe Weather on mobile